sensor_id;sensor_type;location;lat;lon;timestamp;P1;durP1;ratioP1;P2;durP2;ratioP2
20721;SDS011;10522;52.198;9.890;2022-10-16T00:00:44;7.13;;;1.23;;
20721;SDS011;10522;52.198;9.890;2022-10-16T00:03:10;3.27;;;1.17;;
20721;SDS011;10522;52.198;9.890;2022-10-16T00:05:41;0.93;;;0.80;;
20721;SDS011;10522;52.198;9.890;2022-10-16T00:08:08;2.23;;;0.90;;
20721;SDS011;10522;52.198;9.890;2022-10-16T00:10:36;3.07;;;1.03;;
20721;SDS011;10522;52.198;9.890;2022-10-16T00:13:02;0.90;;;0.90;;
20721;SDS011;10522;52.198;9.890;2022-10-16T00:15:28;1.50;;;1.20;;
20721;SDS011;10522;52.198;9.890;2022-10-16T00:17:54;2.30;;;0.73;;
20721;SDS011;10522;52.198;9.890;2022-10-16T00:20:20;2.60;;;1.00;;
20721;SDS011;10522;52.198;9.890;2022-10-16T00:22:45;1.43;;;0.70;;
20721;SDS011;10522;52.198;9.890;2022-10-16T00:25:11;0.90;;;0.90;;
20721;SDS011;10522;52.198;9.890;2022-10-16T00:27:37;1.47;;;1.07;;
20721;SDS011;10522;52.198;9.890;2022-10-16T00:30:02;1.87;;;0.73;;
20721;SDS011;10522;52.198;9.890;2022-10-16T00:32:29;3.03;;;1.17;;
20721;SDS011;10522;52.198;9.890;2022-10-16T00:34:54;2.27;;;1.23;;
20721;SDS011;10522;52.198;9.890;2022-10-16T00:37:20;5.33;;;1.20;;
20721;SDS011;10522;52.198;9.890;2022-10-16T00:39:46;2.40;;;1.17;;
20721;SDS011;10522;52.198;9.890;2022-10-16T00:42:15;1.60;;;1.13;;
20721;SDS011;10522;52.198;9.890;2022-10-16T00:47:20;2.50;;;1.47;;
20721;SDS011;10522;52.198;9.890;2022-10-16T00:49:47;2.50;;;1.20;;
20721;SDS011;10522;52.198;9.890;2022-10-16T00:52:16;1.47;;;1.37;;
20721;SDS011;10522;52.198;9.890;2022-10-16T00:54:42;2.13;;;1.33;;
20721;SDS011;10522;52.198;9.890;2022-10-16T00:57:09;2.97;;;1.40;;
20721;SDS011;10522;52.198;9.890;2022-10-16T00:59:36;1.70;;;1.57;;
20721;SDS011;10522;52.198;9.890;2022-10-16T01:02:03;2.93;;;1.60;;
20721;SDS011;10522;52.198;9.890;2022-10-16T01:04:35;2.77;;;1.23;;
20721;SDS011;10522;52.198;9.890;2022-10-16T01:12:36;4.03;;;1.50;;
20721;SDS011;10522;52.198;9.890;2022-10-16T01:15:09;3.77;;;1.80;;
20721;SDS011;10522;52.198;9.890;2022-10-16T01:17:47;4.33;;;1.80;;
20721;SDS011;10522;52.198;9.890;2022-10-16T01:20:45;1.53;;;1.43;;
20721;SDS011;10522;52.198;9.890;2022-10-16T01:31:21;3.77;;;1.50;;
20721;SDS011;10522;52.198;9.890;2022-10-16T01:33:56;2.90;;;2.37;;
20721;SDS011;10522;52.198;9.890;2022-10-16T01:36:38;5.30;;;2.60;;
20721;SDS011;10522;52.198;9.890;2022-10-16T01:39:08;4.10;;;1.73;;
20721;SDS011;10522;52.198;9.890;2022-10-16T01:41:37;5.10;;;1.70;;
20721;SDS011;10522;52.198;9.890;2022-10-16T01:44:06;2.70;;;1.30;;
20721;SDS011;10522;52.198;9.890;2022-10-16T01:46:37;3.17;;;1.20;;
20721;SDS011;10522;52.198;9.890;2022-10-16T01:49:06;5.00;;;1.83;;
20721;SDS011;10522;52.198;9.890;2022-10-16T01:51:33;3.30;;;1.60;;
20721;SDS011;10522;52.198;9.890;2022-10-16T01:54:00;3.53;;;1.50;;
20721;SDS011;10522;52.198;9.890;2022-10-16T01:56:28;5.57;;;1.63;;
20721;SDS011;10522;52.198;9.890;2022-10-16T01:58:57;4.00;;;1.70;;
20721;SDS011;10522;52.198;9.890;2022-10-16T02:01:46;2.17;;;1.70;;
20721;SDS011;10522;52.198;9.890;2022-10-16T02:07:00;2.13;;;1.40;;
20721;SDS011;10522;52.198;9.890;2022-10-16T02:09:26;2.70;;;1.60;;
20721;SDS011;10522;52.198;9.890;2022-10-16T02:11:52;1.73;;;1.20;;
20721;SDS011;10522;52.198;9.890;2022-10-16T02:14:20;3.23;;;1.50;;
20721;SDS011;10522;52.198;9.890;2022-10-16T02:16:49;2.30;;;1.30;;
20721;SDS011;10522;52.198;9.890;2022-10-16T02:19:15;3.50;;;1.70;;
20721;SDS011;10522;52.198;9.890;2022-10-16T02:27:03;1.83;;;1.40;;
20721;SDS011;10522;52.198;9.890;2022-10-16T02:29:31;1.73;;;1.20;;
20721;SDS011;10522;52.198;9.890;2022-10-16T02:32:02;2.00;;;1.50;;
20721;SDS011;10522;52.198;9.890;2022-10-16T02:34:31;8.00;;;1.60;;
20721;SDS011;10522;52.198;9.890;2022-10-16T02:36:59;5.03;;;1.33;;
20721;SDS011;10522;52.198;9.890;2022-10-16T02:39:28;2.57;;;1.83;;
20721;SDS011;10522;52.198;9.890;2022-10-16T02:41:55;4.07;;;2.00;;
20721;SDS011;10522;52.198;9.890;2022-10-16T02:44:21;1.80;;;1.47;;
20721;SDS011;10522;52.198;9.890;2022-10-16T02:46:46;4.47;;;1.60;;
20721;SDS011;10522;52.198;9.890;2022-10-16T02:49:12;10.33;;;1.60;;
20721;SDS011;10522;52.198;9.890;2022-10-16T02:51:38;3.87;;;1.50;;
20721;SDS011;10522;52.198;9.890;2022-10-16T02:54:03;1.47;;;1.33;;
20721;SDS011;10522;52.198;9.890;2022-10-16T02:56:29;3.20;;;1.67;;
20721;SDS011;10522;52.198;9.890;2022-10-16T02:58:55;2.03;;;1.60;;
20721;SDS011;10522;52.198;9.890;2022-10-16T03:01:21;3.80;;;1.50;;
20721;SDS011;10522;52.198;9.890;2022-10-16T03:03:48;5.07;;;1.80;;
20721;SDS011;10522;52.198;9.890;2022-10-16T03:06:13;2.77;;;1.40;;
20721;SDS011;10522;52.198;9.890;2022-10-16T03:08:39;4.07;;;1.87;;
20721;SDS011;10522;52.198;9.890;2022-10-16T03:11:04;4.33;;;1.63;;
20721;SDS011;10522;52.198;9.890;2022-10-16T03:13:30;5.30;;;2.10;;
20721;SDS011;10522;52.198;9.890;2022-10-16T03:15:56;5.37;;;1.43;;
20721;SDS011;10522;52.198;9.890;2022-10-16T03:18:21;4.87;;;1.43;;
20721;SDS011;10522;52.198;9.890;2022-10-16T03:20:47;3.37;;;1.43;;
20721;SDS011;10522;52.198;9.890;2022-10-16T03:23:13;8.43;;;1.50;;
20721;SDS011;10522;52.198;9.890;2022-10-16T03:25:39;6.63;;;1.60;;
20721;SDS011;10522;52.198;9.890;2022-10-16T03:28:04;5.07;;;1.93;;
20721;SDS011;10522;52.198;9.890;2022-10-16T03:30:30;4.73;;;1.50;;
20721;SDS011;10522;52.198;9.890;2022-10-16T03:32:56;4.47;;;1.53;;
20721;SDS011;10522;52.198;9.890;2022-10-16T03:35:22;5.50;;;1.40;;
20721;SDS011;10522;52.198;9.890;2022-10-16T03:37:49;3.53;;;1.37;;
20721;SDS011;10522;52.198;9.890;2022-10-16T03:40:15;2.33;;;1.33;;
20721;SDS011;10522;52.198;9.890;2022-10-16T03:42:44;4.73;;;1.77;;
20721;SDS011;10522;52.198;9.890;2022-10-16T03:45:11;3.17;;;1.40;;
20721;SDS011;10522;52.198;9.890;2022-10-16T03:47:37;3.93;;;1.53;;
20721;SDS011;10522;52.198;9.890;2022-10-16T03:50:03;4.20;;;1.40;;
20721;SDS011;10522;52.198;9.890;2022-10-16T03:52:29;6.43;;;1.63;;
20721;SDS011;10522;52.198;9.890;2022-10-16T03:54:55;3.43;;;1.63;;
20721;SDS011;10522;52.198;9.890;2022-10-16T03:57:21;7.87;;;1.93;;
20721;SDS011;10522;52.198;9.890;2022-10-16T03:59:46;2.53;;;1.33;;
20721;SDS011;10522;52.198;9.890;2022-10-16T04:02:12;4.63;;;1.87;;
20721;SDS011;10522;52.198;9.890;2022-10-16T04:04:38;6.07;;;1.63;;
20721;SDS011;10522;52.198;9.890;2022-10-16T04:07:03;1.70;;;1.47;;
20721;SDS011;10522;52.198;9.890;2022-10-16T04:09:29;9.93;;;2.43;;
20721;SDS011;10522;52.198;9.890;2022-10-16T04:11:55;4.80;;;1.90;;
20721;SDS011;10522;52.198;9.890;2022-10-16T04:14:21;3.47;;;1.70;;
20721;SDS011;10522;52.198;9.890;2022-10-16T04:16:47;4.47;;;1.83;;
20721;SDS011;10522;52.198;9.890;2022-10-16T04:19:12;5.67;;;1.80;;
20721;SDS011;10522;52.198;9.890;2022-10-16T04:21:38;7.13;;;2.27;;
20721;SDS011;10522;52.198;9.890;2022-10-16T04:24:04;4.53;;;1.93;;
20721;SDS011;10522;52.198;9.890;2022-10-16T04:26:30;4.87;;;1.87;;
20721;SDS011;10522;52.198;9.890;2022-10-16T04:28:55;4.23;;;1.70;;
20721;SDS011;10522;52.198;9.890;2022-10-16T04:31:21;4.53;;;1.93;;
20721;SDS011;10522;52.198;9.890;2022-10-16T04:33:47;3.80;;;1.63;;
20721;SDS011;10522;52.198;9.890;2022-10-16T04:36:13;3.20;;;2.03;;
20721;SDS011;10522;52.198;9.890;2022-10-16T04:38:38;3.73;;;1.70;;
20721;SDS011;10522;52.198;9.890;2022-10-16T04:41:05;2.97;;;2.10;;
20721;SDS011;10522;52.198;9.890;2022-10-16T04:43:31;2.33;;;2.03;;
20721;SDS011;10522;52.198;9.890;2022-10-16T04:45:57;2.37;;;1.90;;
20721;SDS011;10522;52.198;9.890;2022-10-16T04:48:23;4.87;;;1.87;;
20721;SDS011;10522;52.198;9.890;2022-10-16T04:50:49;2.63;;;2.10;;
20721;SDS011;10522;52.198;9.890;2022-10-16T04:53:14;5.17;;;1.63;;
20721;SDS011;10522;52.198;9.890;2022-10-16T04:55:40;3.60;;;1.70;;
20721;SDS011;10522;52.198;9.890;2022-10-16T04:58:07;6.27;;;2.47;;
20721;SDS011;10522;52.198;9.890;2022-10-16T05:00:33;6.23;;;1.70;;
20721;SDS011;10522;52.198;9.890;2022-10-16T05:02:59;2.57;;;2.10;;
20721;SDS011;10522;52.198;9.890;2022-10-16T05:05:26;4.13;;;2.57;;
20721;SDS011;10522;52.198;9.890;2022-10-16T05:07:52;3.27;;;2.17;;
20721;SDS011;10522;52.198;9.890;2022-10-16T05:10:18;4.67;;;2.10;;
20721;SDS011;10522;52.198;9.890;2022-10-16T05:12:44;4.23;;;2.00;;
20721;SDS011;10522;52.198;9.890;2022-10-16T05:15:10;3.03;;;2.40;;
20721;SDS011;10522;52.198;9.890;2022-10-16T05:17:36;3.37;;;2.50;;
20721;SDS011;10522;52.198;9.890;2022-10-16T05:20:02;5.07;;;2.43;;
20721;SDS011;10522;52.198;9.890;2022-10-16T05:22:28;3.10;;;2.23;;
20721;SDS011;10522;52.198;9.890;2022-10-16T05:24:54;3.63;;;2.20;;
20721;SDS011;10522;52.198;9.890;2022-10-16T05:27:19;3.33;;;2.33;;
20721;SDS011;10522;52.198;9.890;2022-10-16T05:29:46;1.93;;;1.77;;
20721;SDS011;10522;52.198;9.890;2022-10-16T05:32:17;3.30;;;2.10;;
20721;SDS011;10522;52.198;9.890;2022-10-16T05:34:44;3.60;;;1.80;;
20721;SDS011;10522;52.198;9.890;2022-10-16T05:37:10;6.27;;;2.10;;
20721;SDS011;10522;52.198;9.890;2022-10-16T05:39:37;1.53;;;1.43;;
20721;SDS011;10522;52.198;9.890;2022-10-16T05:42:03;4.00;;;1.50;;
20721;SDS011;10522;52.198;9.890;2022-10-16T05:44:30;1.90;;;1.60;;
20721;SDS011;10522;52.198;9.890;2022-10-16T05:46:55;2.50;;;1.27;;
20721;SDS011;10522;52.198;9.890;2022-10-16T05:49:21;5.17;;;1.80;;
20721;SDS011;10522;52.198;9.890;2022-10-16T05:51:47;2.17;;;1.43;;
20721;SDS011;10522;52.198;9.890;2022-10-16T05:54:12;1.60;;;1.33;;
20721;SDS011;10522;52.198;9.890;2022-10-16T05:56:38;3.53;;;1.40;;
20721;SDS011;10522;52.198;9.890;2022-10-16T05:59:04;4.00;;;1.40;;
20721;SDS011;10522;52.198;9.890;2022-10-16T06:01:29;4.87;;;1.63;;
20721;SDS011;10522;52.198;9.890;2022-10-16T06:03:56;3.50;;;1.40;;
20721;SDS011;10522;52.198;9.890;2022-10-16T06:06:23;5.00;;;1.37;;
20721;SDS011;10522;52.198;9.890;2022-10-16T06:08:51;3.90;;;1.37;;
20721;SDS011;10522;52.198;9.890;2022-10-16T06:11:23;1.70;;;1.03;;
20721;SDS011;10522;52.198;9.890;2022-10-16T06:13:52;1.27;;;1.17;;
20721;SDS011;10522;52.198;9.890;2022-10-16T06:16:19;5.30;;;1.60;;
20721;SDS011;10522;52.198;9.890;2022-10-16T06:18:45;1.37;;;1.27;;
20721;SDS011;10522;52.198;9.890;2022-10-16T06:21:13;2.57;;;1.20;;
20721;SDS011;10522;52.198;9.890;2022-10-16T06:23:41;2.73;;;1.20;;
20721;SDS011;10522;52.198;9.890;2022-10-16T06:26:08;2.37;;;1.13;;
20721;SDS011;10522;52.198;9.890;2022-10-16T06:28:35;2.47;;;1.17;;
20721;SDS011;10522;52.198;9.890;2022-10-16T06:31:02;1.83;;;1.23;;
20721;SDS011;10522;52.198;9.890;2022-10-16T06:33:28;3.60;;;1.40;;
20721;SDS011;10522;52.198;9.890;2022-10-16T06:35:59;3.17;;;1.30;;
20721;SDS011;10522;52.198;9.890;2022-10-16T06:38:29;3.43;;;1.40;;
20721;SDS011;10522;52.198;9.890;2022-10-16T06:40:55;2.07;;;1.30;;
20721;SDS011;10522;52.198;9.890;2022-10-16T06:43:21;3.83;;;1.27;;
20721;SDS011;10522;52.198;9.890;2022-10-16T06:45:54;5.20;;;1.63;;
20721;SDS011;10522;52.198;9.890;2022-10-16T06:48:21;3.43;;;1.80;;
20721;SDS011;10522;52.198;9.890;2022-10-16T06:53:26;2.13;;;1.63;;
20721;SDS011;10522;52.198;9.890;2022-10-16T06:55:54;1.20;;;1.10;;
20721;SDS011;10522;52.198;9.890;2022-10-16T06:58:19;2.67;;;1.30;;
20721;SDS011;10522;52.198;9.890;2022-10-16T07:00:47;1.87;;;1.23;;
20721;SDS011;10522;52.198;9.890;2022-10-16T07:03:14;2.73;;;1.20;;
20721;SDS011;10522;52.198;9.890;2022-10-16T07:05:40;1.90;;;1.23;;
20721;SDS011;10522;52.198;9.890;2022-10-16T07:08:07;2.00;;;1.20;;
20721;SDS011;10522;52.198;9.890;2022-10-16T07:10:40;3.67;;;1.30;;
20721;SDS011;10522;52.198;9.890;2022-10-16T07:13:09;2.30;;;1.67;;
20721;SDS011;10522;52.198;9.890;2022-10-16T07:15:38;1.63;;;1.50;;
20721;SDS011;10522;52.198;9.890;2022-10-16T07:18:03;2.73;;;1.50;;
20721;SDS011;10522;52.198;9.890;2022-10-16T07:20:29;2.60;;;1.20;;
20721;SDS011;10522;52.198;9.890;2022-10-16T07:22:55;2.77;;;1.20;;
20721;SDS011;10522;52.198;9.890;2022-10-16T07:25:21;5.27;;;1.40;;
20721;SDS011;10522;52.198;9.890;2022-10-16T07:27:46;5.27;;;1.37;;
20721;SDS011;10522;52.198;9.890;2022-10-16T07:30:12;2.67;;;1.30;;
20721;SDS011;10522;52.198;9.890;2022-10-16T07:32:38;2.03;;;1.27;;
20721;SDS011;10522;52.198;9.890;2022-10-16T07:35:04;4.63;;;1.00;;
20721;SDS011;10522;52.198;9.890;2022-10-16T07:37:30;1.97;;;1.00;;
20721;SDS011;10522;52.198;9.890;2022-10-16T07:39:56;2.60;;;1.00;;
20721;SDS011;10522;52.198;9.890;2022-10-16T07:42:22;3.07;;;0.90;;
20721;SDS011;10522;52.198;9.890;2022-10-16T07:44:47;2.90;;;1.30;;
20721;SDS011;10522;52.198;9.890;2022-10-16T07:47:13;1.57;;;1.00;;
20721;SDS011;10522;52.198;9.890;2022-10-16T07:49:39;0.80;;;0.80;;
20721;SDS011;10522;52.198;9.890;2022-10-16T07:52:04;0.93;;;0.80;;
20721;SDS011;10522;52.198;9.890;2022-10-16T07:54:30;1.40;;;1.00;;
20721;SDS011;10522;52.198;9.890;2022-10-16T07:56:56;1.70;;;1.10;;
20721;SDS011;10522;52.198;9.890;2022-10-16T07:59:21;4.83;;;1.53;;
20721;SDS011;10522;52.198;9.890;2022-10-16T08:01:48;1.10;;;0.70;;
20721;SDS011;10522;52.198;9.890;2022-10-16T08:04:14;2.47;;;1.10;;
20721;SDS011;10522;52.198;9.890;2022-10-16T08:06:41;1.53;;;1.10;;
20721;SDS011;10522;52.198;9.890;2022-10-16T08:09:07;1.20;;;0.90;;
20721;SDS011;10522;52.198;9.890;2022-10-16T08:11:33;1.17;;;1.07;;
20721;SDS011;10522;52.198;9.890;2022-10-16T08:13:59;1.43;;;0.80;;
20721;SDS011;10522;52.198;9.890;2022-10-16T08:16:25;3.53;;;0.80;;
20721;SDS011;10522;52.198;9.890;2022-10-16T08:18:51;4.97;;;0.87;;
20721;SDS011;10522;52.198;9.890;2022-10-16T08:21:17;2.37;;;0.97;;
20721;SDS011;10522;52.198;9.890;2022-10-16T08:23:45;5.80;;;1.23;;
20721;SDS011;10522;52.198;9.890;2022-10-16T08:26:11;1.77;;;1.03;;
20721;SDS011;10522;52.198;9.890;2022-10-16T08:28:37;2.27;;;0.80;;
20721;SDS011;10522;52.198;9.890;2022-10-16T08:33:36;3.03;;;0.83;;
20721;SDS011;10522;52.198;9.890;2022-10-16T08:36:04;0.80;;;0.80;;
20721;SDS011;10522;52.198;9.890;2022-10-16T08:38:30;2.93;;;0.90;;
20721;SDS011;10522;52.198;9.890;2022-10-16T08:49:05;1.17;;;1.07;;
20721;SDS011;10522;52.198;9.890;2022-10-16T08:51:36;4.70;;;1.10;;
20721;SDS011;10522;52.198;9.890;2022-10-16T08:56:35;0.83;;;0.70;;
20721;SDS011;10522;52.198;9.890;2022-10-16T08:59:01;3.07;;;0.87;;
20721;SDS011;10522;52.198;9.890;2022-10-16T09:01:43;2.40;;;0.90;;
20721;SDS011;10522;52.198;9.890;2022-10-16T09:04:25;1.00;;;0.80;;
20721;SDS011;10522;52.198;9.890;2022-10-16T09:07:22;1.57;;;0.97;;
20721;SDS011;10522;52.198;9.890;2022-10-16T09:12:52;0.67;;;0.67;;
20721;SDS011;10522;52.198;9.890;2022-10-16T09:15:35;0.97;;;0.87;;
20721;SDS011;10522;52.198;9.890;2022-10-16T09:20:42;1.10;;;1.00;;
20721;SDS011;10522;52.198;9.890;2022-10-16T09:23:30;3.50;;;1.17;;
20721;SDS011;10522;52.198;9.890;2022-10-16T09:25:58;1.50;;;1.10;;
20721;SDS011;10522;52.198;9.890;2022-10-16T09:28:24;3.13;;;0.77;;
20721;SDS011;10522;52.198;9.890;2022-10-16T09:30:50;0.70;;;0.70;;
20721;SDS011;10522;52.198;9.890;2022-10-16T09:33:20;3.83;;;0.90;;
20721;SDS011;10522;52.198;9.890;2022-10-16T09:35:54;0.80;;;0.80;;
20721;SDS011;10522;52.198;9.890;2022-10-16T09:38:28;1.73;;;0.87;;
20721;SDS011;10522;52.198;9.890;2022-10-16T09:40:56;1.30;;;0.93;;
20721;SDS011;10522;52.198;9.890;2022-10-16T09:43:25;1.87;;;0.80;;
20721;SDS011;10522;52.198;9.890;2022-10-16T09:48:47;1.67;;;0.60;;
20721;SDS011;10522;52.198;9.890;2022-10-16T09:51:33;2.83;;;0.80;;
20721;SDS011;10522;52.198;9.890;2022-10-16T09:54:02;3.40;;;0.80;;
20721;SDS011;10522;52.198;9.890;2022-10-16T09:56:38;2.03;;;0.87;;
20721;SDS011;10522;52.198;9.890;2022-10-16T10:01:44;2.47;;;0.83;;
20721;SDS011;10522;52.198;9.890;2022-10-16T10:04:16;1.93;;;0.70;;
20721;SDS011;10522;52.198;9.890;2022-10-16T10:06:46;0.73;;;0.73;;
20721;SDS011;10522;52.198;9.890;2022-10-16T10:12:02;0.70;;;0.70;;
20721;SDS011;10522;52.198;9.890;2022-10-16T10:14:34;1.13;;;0.60;;
20721;SDS011;10522;52.198;9.890;2022-10-16T10:33:59;2.70;;;0.93;;
20721;SDS011;10522;52.198;9.890;2022-10-16T10:36:51;4.17;;;0.90;;
20721;SDS011;10522;52.198;9.890;2022-10-16T10:39:41;4.60;;;1.10;;
20721;SDS011;10522;52.198;9.890;2022-10-16T10:42:54;1.10;;;0.60;;
20721;SDS011;10522;52.198;9.890;2022-10-16T10:45:59;2.77;;;1.90;;
20721;SDS011;10522;52.198;9.890;2022-10-16T10:51:40;0.73;;;0.50;;
20721;SDS011;10522;52.198;9.890;2022-10-16T11:00:16;1.87;;;1.00;;
20721;SDS011;10522;52.198;9.890;2022-10-16T11:06:03;5.73;;;1.10;;
20721;SDS011;10522;52.198;9.890;2022-10-16T11:08:43;7.50;;;2.00;;
20721;SDS011;10522;52.198;9.890;2022-10-16T11:12:17;4.33;;;1.57;;
20721;SDS011;10522;52.198;9.890;2022-10-16T11:16:55;2.23;;;1.23;;
20721;SDS011;10522;52.198;9.890;2022-10-16T11:27:15;3.13;;;0.57;;
20721;SDS011;10522;52.198;9.890;2022-10-16T11:29:48;2.43;;;0.60;;
20721;SDS011;10522;52.198;9.890;2022-10-16T11:32:24;5.33;;;0.67;;
20721;SDS011;10522;52.198;9.890;2022-10-16T11:35:06;3.33;;;0.70;;
20721;SDS011;10522;52.198;9.890;2022-10-16T11:37:49;4.17;;;0.97;;
20721;SDS011;10522;52.198;9.890;2022-10-16T11:40:31;1.07;;;0.50;;
20721;SDS011;10522;52.198;9.890;2022-10-16T11:43:24;2.30;;;0.60;;
20721;SDS011;10522;52.198;9.890;2022-10-16T11:46:02;2.20;;;0.40;;
20721;SDS011;10522;52.198;9.890;2022-10-16T11:48:38;0.77;;;0.57;;
20721;SDS011;10522;52.198;9.890;2022-10-16T11:57:07;0.53;;;0.40;;
20721;SDS011;10522;52.198;9.890;2022-10-16T11:59:58;1.10;;;0.50;;
20721;SDS011;10522;52.198;9.890;2022-10-16T12:08:47;0.83;;;0.50;;
20721;SDS011;10522;52.198;9.890;2022-10-16T12:11:32;2.50;;;0.40;;
20721;SDS011;10522;52.198;9.890;2022-10-16T12:14:16;1.00;;;0.80;;
20721;SDS011;10522;52.198;9.890;2022-10-16T12:22:53;2.60;;;0.67;;
20721;SDS011;10522;52.198;9.890;2022-10-16T12:25:55;2.20;;;0.67;;
20721;SDS011;10522;52.198;9.890;2022-10-16T12:28:35;1.43;;;0.43;;
20721;SDS011;10522;52.198;9.890;2022-10-16T12:31:08;1.30;;;0.50;;
20721;SDS011;10522;52.198;9.890;2022-10-16T12:49:54;0.20;;;0.20;;
20721;SDS011;10522;52.198;9.890;2022-10-16T12:52:37;2.17;;;0.50;;
20721;SDS011;10522;52.198;9.890;2022-10-16T12:55:15;2.47;;;0.50;;
20721;SDS011;10522;52.198;9.890;2022-10-16T12:58:00;2.10;;;0.90;;
20721;SDS011;10522;52.198;9.890;2022-10-16T13:00:45;0.40;;;0.20;;
20721;SDS011;10522;52.198;9.890;2022-10-16T13:15:38;1.37;;;0.50;;
20721;SDS011;10522;52.198;9.890;2022-10-16T13:24:50;5.83;;;0.60;;
20721;SDS011;10522;52.198;9.890;2022-10-16T13:27:52;1.23;;;0.40;;
20721;SDS011;10522;52.198;9.890;2022-10-16T13:30:50;1.87;;;0.30;;
20721;SDS011;10522;52.198;9.890;2022-10-16T13:56:20;1.60;;;0.50;;
20721;SDS011;10522;52.198;9.890;2022-10-16T14:05:29;1.03;;;0.50;;
20721;SDS011;10522;52.198;9.890;2022-10-16T14:08:01;2.53;;;0.53;;
20721;SDS011;10522;52.198;9.890;2022-10-16T14:10:55;0.67;;;0.50;;
20721;SDS011;10522;52.198;9.890;2022-10-16T14:13:28;0.77;;;0.40;;
20721;SDS011;10522;52.198;9.890;2022-10-16T14:16:02;1.47;;;0.60;;
20721;SDS011;10522;52.198;9.890;2022-10-16T14:18:32;3.23;;;0.40;;
20721;SDS011;10522;52.198;9.890;2022-10-16T14:21:22;0.67;;;0.50;;
20721;SDS011;10522;52.198;9.890;2022-10-16T14:23:51;0.90;;;0.90;;
20721;SDS011;10522;52.198;9.890;2022-10-16T14:26:40;0.50;;;0.43;;
20721;SDS011;10522;52.198;9.890;2022-10-16T14:29:14;4.00;;;0.63;;
20721;SDS011;10522;52.198;9.890;2022-10-16T14:31:56;0.90;;;0.60;;
20721;SDS011;10522;52.198;9.890;2022-10-16T14:34:33;3.20;;;0.40;;
20721;SDS011;10522;52.198;9.890;2022-10-16T14:37:08;1.20;;;0.50;;
20721;SDS011;10522;52.198;9.890;2022-10-16T14:39:55;0.53;;;0.40;;
20721;SDS011;10522;52.198;9.890;2022-10-16T14:42:23;3.13;;;0.50;;
20721;SDS011;10522;52.198;9.890;2022-10-16T14:44:51;2.90;;;0.40;;
20721;SDS011;10522;52.198;9.890;2022-10-16T14:47:19;2.73;;;0.40;;
20721;SDS011;10522;52.198;9.890;2022-10-16T14:49:49;0.40;;;0.40;;
20721;SDS011;10522;52.198;9.890;2022-10-16T14:52:16;2.20;;;0.40;;
20721;SDS011;10522;52.198;9.890;2022-10-16T14:54:42;0.57;;;0.50;;
20721;SDS011;10522;52.198;9.890;2022-10-16T14:57:22;0.93;;;0.70;;
20721;SDS011;10522;52.198;9.890;2022-10-16T14:59:49;3.30;;;0.80;;
20721;SDS011;10522;52.198;9.890;2022-10-16T15:04:49;3.10;;;0.60;;
20721;SDS011;10522;52.198;9.890;2022-10-16T15:07:15;3.93;;;0.73;;
20721;SDS011;10522;52.198;9.890;2022-10-16T15:09:41;1.90;;;0.77;;
20721;SDS011;10522;52.198;9.890;2022-10-16T15:12:07;1.13;;;0.50;;
20721;SDS011;10522;52.198;9.890;2022-10-16T15:14:33;1.60;;;0.40;;
20721;SDS011;10522;52.198;9.890;2022-10-16T15:16:58;2.40;;;0.50;;
20721;SDS011;10522;52.198;9.890;2022-10-16T15:19:24;1.10;;;0.50;;
20721;SDS011;10522;52.198;9.890;2022-10-16T15:21:50;3.23;;;0.50;;
20721;SDS011;10522;52.198;9.890;2022-10-16T15:24:17;1.50;;;1.17;;
20721;SDS011;10522;52.198;9.890;2022-10-16T15:26:43;2.37;;;0.70;;
20721;SDS011;10522;52.198;9.890;2022-10-16T15:29:10;2.67;;;0.77;;
20721;SDS011;10522;52.198;9.890;2022-10-16T15:31:37;3.10;;;0.80;;
20721;SDS011;10522;52.198;9.890;2022-10-16T15:34:03;2.33;;;0.60;;
20721;SDS011;10522;52.198;9.890;2022-10-16T15:36:35;1.57;;;0.73;;
20721;SDS011;10522;52.198;9.890;2022-10-16T15:39:22;1.07;;;0.50;;
20721;SDS011;10522;52.198;9.890;2022-10-16T15:41:47;3.33;;;0.60;;
20721;SDS011;10522;52.198;9.890;2022-10-16T15:44:18;1.70;;;0.70;;
20721;SDS011;10522;52.198;9.890;2022-10-16T15:46:45;1.77;;;0.67;;
20721;SDS011;10522;52.198;9.890;2022-10-16T15:49:11;1.97;;;0.63;;
20721;SDS011;10522;52.198;9.890;2022-10-16T15:51:38;1.40;;;0.50;;
20721;SDS011;10522;52.198;9.890;2022-10-16T15:54:05;1.70;;;1.00;;
20721;SDS011;10522;52.198;9.890;2022-10-16T15:56:30;2.13;;;0.50;;
20721;SDS011;10522;52.198;9.890;2022-10-16T15:58:58;5.00;;;0.67;;
20721;SDS011;10522;52.198;9.890;2022-10-16T16:01:24;4.77;;;0.73;;
20721;SDS011;10522;52.198;9.890;2022-10-16T16:03:54;1.17;;;0.40;;
20721;SDS011;10522;52.198;9.890;2022-10-16T16:06:20;2.67;;;0.60;;
20721;SDS011;10522;52.198;9.890;2022-10-16T16:08:47;2.60;;;0.50;;
20721;SDS011;10522;52.198;9.890;2022-10-16T16:11:14;2.57;;;0.80;;
20721;SDS011;10522;52.198;9.890;2022-10-16T16:13:41;3.20;;;0.50;;
20721;SDS011;10522;52.198;9.890;2022-10-16T16:16:07;3.23;;;0.50;;
20721;SDS011;10522;52.198;9.890;2022-10-16T16:18:34;1.03;;;0.70;;
20721;SDS011;10522;52.198;9.890;2022-10-16T16:21:01;0.97;;;0.60;;
20721;SDS011;10522;52.198;9.890;2022-10-16T16:23:27;3.57;;;0.70;;
20721;SDS011;10522;52.198;9.890;2022-10-16T16:26:13;1.53;;;0.70;;
20721;SDS011;10522;52.198;9.890;2022-10-16T16:28:40;2.67;;;1.00;;
20721;SDS011;10522;52.198;9.890;2022-10-16T16:31:07;2.30;;;0.97;;
20721;SDS011;10522;52.198;9.890;2022-10-16T16:33:36;4.43;;;1.00;;
20721;SDS011;10522;52.198;9.890;2022-10-16T16:36:03;2.47;;;1.33;;
20721;SDS011;10522;52.198;9.890;2022-10-16T16:38:31;1.73;;;0.80;;
20721;SDS011;10522;52.198;9.890;2022-10-16T16:40:58;3.00;;;1.30;;
20721;SDS011;10522;52.198;9.890;2022-10-16T16:43:26;6.63;;;1.30;;
20721;SDS011;10522;52.198;9.890;2022-10-16T16:45:53;2.93;;;1.20;;
20721;SDS011;10522;52.198;9.890;2022-10-16T16:48:20;5.83;;;1.60;;
20721;SDS011;10522;52.198;9.890;2022-10-16T16:50:46;2.20;;;1.33;;
20721;SDS011;10522;52.198;9.890;2022-10-16T16:53:13;7.67;;;1.50;;
20721;SDS011;10522;52.198;9.890;2022-10-16T16:55:38;3.97;;;1.40;;
20721;SDS011;10522;52.198;9.890;2022-10-16T16:58:04;4.43;;;1.40;;
20721;SDS011;10522;52.198;9.890;2022-10-16T17:00:30;3.87;;;1.50;;
20721;SDS011;10522;52.198;9.890;2022-10-16T17:02:56;3.83;;;1.50;;
20721;SDS011;10522;52.198;9.890;2022-10-16T17:05:22;7.77;;;1.63;;
20721;SDS011;10522;52.198;9.890;2022-10-16T17:07:48;5.23;;;1.70;;
20721;SDS011;10522;52.198;9.890;2022-10-16T17:10:14;5.57;;;1.37;;
20721;SDS011;10522;52.198;9.890;2022-10-16T17:12:40;4.00;;;1.57;;
20721;SDS011;10522;52.198;9.890;2022-10-16T17:15:06;2.97;;;1.50;;
20721;SDS011;10522;52.198;9.890;2022-10-16T17:17:32;1.17;;;1.03;;
20721;SDS011;10522;52.198;9.890;2022-10-16T17:19:57;2.00;;;1.37;;
20721;SDS011;10522;52.198;9.890;2022-10-16T17:22:23;4.30;;;1.50;;
20721;SDS011;10522;52.198;9.890;2022-10-16T17:24:49;4.30;;;1.40;;
20721;SDS011;10522;52.198;9.890;2022-10-16T17:27:16;2.83;;;1.57;;
20721;SDS011;10522;52.198;9.890;2022-10-16T17:29:43;4.20;;;2.00;;
20721;SDS011;10522;52.198;9.890;2022-10-16T17:32:09;8.83;;;2.40;;
20721;SDS011;10522;52.198;9.890;2022-10-16T17:34:35;19.87;;;3.10;;
20721;SDS011;10522;52.198;9.890;2022-10-16T17:37:02;5.07;;;2.10;;
20721;SDS011;10522;52.198;9.890;2022-10-16T17:39:28;7.57;;;2.00;;
20721;SDS011;10522;52.198;9.890;2022-10-16T17:41:54;5.03;;;2.47;;
20721;SDS011;10522;52.198;9.890;2022-10-16T17:44:19;2.27;;;2.07;;
20721;SDS011;10522;52.198;9.890;2022-10-16T17:46:48;3.90;;;2.13;;
20721;SDS011;10522;52.198;9.890;2022-10-16T17:49:16;5.33;;;3.03;;
20721;SDS011;10522;52.198;9.890;2022-10-16T17:51:43;13.07;;;5.57;;
20721;SDS011;10522;52.198;9.890;2022-10-16T17:54:09;11.40;;;5.43;;
20721;SDS011;10522;52.198;9.890;2022-10-16T17:56:35;13.33;;;6.20;;
20721;SDS011;10522;52.198;9.890;2022-10-16T17:59:02;7.93;;;4.43;;
20721;SDS011;10522;52.198;9.890;2022-10-16T18:01:30;7.80;;;3.67;;